createdAt,value
2023-01-09T00:01:43.606Z,95829.75
2023-01-09T00:03:51.937Z,95827.56
2023-01-09T00:06:01.921Z,95840.28
2023-01-09T00:08:10.563Z,95830.91
2023-01-09T00:10:21.108Z,95831.75
2023-01-09T00:12:29.033Z,95835.13
2023-01-09T00:14:36.861Z,95839.44
2023-01-09T00:16:44.946Z,95836.56
2023-01-09T00:18:53.439Z,95838.09
2023-01-09T00:21:02.967Z,95838.09
2023-01-09T00:23:10.793Z,95839.56
2023-01-09T00:25:23.196Z,95843.03
2023-01-09T00:27:33.688Z,95832.09
2023-01-09T00:29:41.904Z,95834.63
2023-01-09T00:31:49.663Z,95828.63
2023-01-09T00:34:03.055Z,95837.75
2023-01-09T00:36:11.972Z,95839.78
2023-01-09T00:38:20.022Z,95833.56
2023-01-09T00:40:31.273Z,95836.91
2023-01-09T00:42:40.390Z,95832.00
2023-01-09T00:44:52.121Z,95833.56
2023-01-09T00:47:04.392Z,95838.09
2023-01-09T00:49:13.198Z,95833.06
2023-01-09T00:51:22.642Z,95840.84
2023-01-09T00:53:34.435Z,95845.41
2023-01-09T00:55:45.094Z,95844.69
2023-01-09T00:57:53.015Z,95830.91
2023-01-09T01:00:03.048Z,95823.06
2023-01-09T01:02:11.636Z,95823.66
2023-01-09T01:04:32.247Z,95828.94
2023-01-09T01:06:54.375Z,95824.50
2023-01-09T01:09:02.189Z,95821.72
2023-01-09T01:11:13.562Z,95822.47
2023-01-09T01:13:21.771Z,95820.41
2023-01-09T01:15:29.756Z,95817.66
2023-01-09T01:17:40.261Z,95823.31
2023-01-09T01:19:48.622Z,95821.50
2023-01-09T01:21:56.634Z,95825.94
2023-01-09T01:24:04.751Z,95822.47
2023-01-09T01:26:17.354Z,95829.06
2023-01-09T01:28:25.562Z,95824.31
2023-01-09T01:30:33.459Z,95831.47
2023-01-09T01:32:41.584Z,95829.16
2023-01-09T01:34:50.022Z,95833.97
2023-01-09T01:36:57.919Z,95832.78
2023-01-09T01:39:06.826Z,95837.22
2023-01-09T01:41:29.603Z,95827.94
2023-01-09T01:43:53.203Z,95830.81
2023-01-09T01:46:01.643Z,95822.75
2023-01-09T01:48:12.595Z,95829.00
2023-01-09T01:50:30.261Z,95829.00
2023-01-09T01:52:41.608Z,95831.31
2023-01-09T01:55:01.412Z,95822.53
2023-01-09T01:57:12.862Z,95827.56
2023-01-09T01:59:25.784Z,95827.13
2023-01-09T02:01:33.973Z,95830.50
2023-01-09T02:03:44.681Z,95830.41
2023-01-09T02:05:52.928Z,95828.25
2023-01-09T02:08:00.823Z,95819.38
2023-01-09T02:10:11.908Z,95821.41
2023-01-09T02:12:25.699Z,95821.50
2023-01-09T02:14:37.929Z,95818.63
2023-01-09T02:16:54.474Z,95816.06
2023-01-09T02:19:09.907Z,95821.22
2023-01-09T02:21:27.592Z,95812.00
2023-01-09T02:24:10.801Z,95812.97
2023-01-09T02:26:37.908Z,95803.00
2023-01-09T02:29:19.131Z,95806.19
2023-01-09T02:31:36.019Z,95807.53
2023-01-09T02:33:56.626Z,95804.94
2023-01-09T02:36:14.229Z,95804.94
2023-01-09T02:38:29.846Z,95796.00
2023-01-09T02:40:43.255Z,95804.44
2023-01-09T02:42:51.945Z,95811.75
2023-01-09T02:45:00.246Z,95819.28
2023-01-09T02:47:31.967Z,95839.28
2023-01-09T02:49:43.327Z,95833.53
2023-01-09T02:51:55.759Z,95836.50
2023-01-09T02:54:21.186Z,95822.34
2023-01-09T02:57:10.261Z,95830.59
2023-01-09T02:59:28.955Z,95833.50
2023-01-09T03:01:48.607Z,95831.47
2023-01-09T03:04:05.188Z,95838.41
2023-01-09T03:06:25.483Z,95833.72
2023-01-09T03:08:43.072Z,95845.78
2023-01-09T03:10:58.521Z,95859.59
2023-01-09T03:13:08.372Z,95845.97
2023-01-09T03:15:18.432Z,95846.38
2023-01-09T03:17:34.093Z,95858.25
2023-01-09T03:19:44.553Z,95858.72
2023-01-09T03:21:57.823Z,95868.34
2023-01-09T03:24:07.522Z,95870.63
2023-01-09T03:26:15.577Z,95873.16
2023-01-09T03:28:29.424Z,95863.78
2023-01-09T03:30:38.896Z,95864.50
2023-01-09T03:32:46.602Z,95879.50
2023-01-09T03:34:54.909Z,95904.13
2023-01-09T03:37:05.296Z,95909.06
2023-01-09T03:39:13.384Z,95932.72
2023-01-09T03:41:22.205Z,95927.91
2023-01-09T03:43:30.031Z,95943.91
2023-01-09T03:45:37.789Z,95942.75
2023-01-09T03:47:45.542Z,95940.72
2023-01-09T03:49:53.265Z,95952.78
2023-01-09T03:52:01.072Z,95952.78
2023-01-09T03:54:13.755Z,95954.81
2023-01-09T03:56:21.516Z,95958.28
2023-01-09T03:58:30.157Z,95964.63
2023-01-09T04:00:39.315Z,95956.13
2023-01-09T04:02:47.389Z,95966.91
2023-01-09T04:04:55.834Z,95968.25
2023-01-09T04:07:03.943Z,95966.91
2023-01-09T04:09:14.783Z,95977.59
2023-01-09T04:11:22.657Z,95978.09
2023-01-09T04:13:30.678Z,95994.78
2023-01-09T04:15:38.615Z,96005.97
2023-01-09T04:17:46.456Z,96012.44
2023-01-09T04:19:54.561Z,96022.88
2023-01-09T04:22:02.571Z,96034.53
2023-01-09T04:24:14.254Z,96042.84
2023-01-09T04:26:24.746Z,96056.53
2023-01-09T04:28:33.303Z,96054.56
2023-01-09T04:30:41.140Z,96059.84
2023-01-09T04:32:50.639Z,96077.97
2023-01-09T04:34:58.585Z,96085.19
2023-01-09T04:37:08.202Z,96084.84
2023-01-09T04:39:18.706Z,96092.84
2023-01-09T04:41:41.087Z,96098.75
2023-01-09T04:43:48.990Z,96103.69
2023-01-09T04:45:56.885Z,96108.22
2023-01-09T04:48:04.782Z,96110.47
2023-01-09T04:50:16.962Z,96128.53
2023-01-09T04:52:25.063Z,96126.94
2023-01-09T04:54:36.042Z,96153.50
2023-01-09T04:56:43.904Z,96159.97
2023-01-09T04:58:51.746Z,96170.72
2023-01-09T05:00:59.851Z,96174.28
2023-01-09T05:03:07.938Z,96173.00
2023-01-09T05:05:16.884Z,96175.78
2023-01-09T05:07:24.899Z,96185.84
2023-01-09T05:09:36.241Z,96183.09
2023-01-09T05:11:44.148Z,96180.53
2023-01-09T05:13:52.208Z,96199.47
2023-01-09T05:16:00.143Z,96210.34
2023-01-09T05:18:08.489Z,96204.31
2023-01-09T05:20:16.448Z,96213.19
2023-01-09T05:22:24.679Z,96218.44
2023-01-09T05:24:35.161Z,96221.81
2023-01-09T05:26:43.532Z,96228.78
2023-01-09T05:28:51.223Z,96241.84
2023-01-09T05:30:59.115Z,96246.63
2023-01-09T05:33:07.173Z,96245.03
2023-01-09T05:35:15.051Z,96253.91
2023-01-09T05:37:23.178Z,96254.31
2023-01-09T05:39:31.155Z,96258.53
2023-01-09T05:41:41.756Z,96270.41
2023-01-09T05:43:49.740Z,96276.66
2023-01-09T05:45:57.547Z,96279.59
2023-01-09T05:48:05.550Z,96283.56
2023-01-09T05:50:14.985Z,96294.81
2023-01-09T05:52:23.243Z,96286.91
2023-01-09T05:54:31.241Z,96285.22
2023-01-09T05:56:42.822Z,96282.59
2023-01-09T05:58:50.940Z,96286.84
2023-01-09T06:00:58.913Z,96288.47
2023-01-09T06:03:06.960Z,96286.44
2023-01-09T06:05:14.932Z,96295.97
2023-01-09T06:07:23.547Z,96298.88
2023-01-09T06:09:31.532Z,96307.88
2023-01-09T06:11:42.027Z,96319.59
2023-01-09T06:13:50.009Z,96313.91
2023-01-09T06:15:58.024Z,96315.34
2023-01-09T06:18:06.216Z,96312.91
2023-01-09T06:20:17.147Z,96312.63
2023-01-09T06:22:24.993Z,96303.59
2023-01-09T06:24:33.057Z,96298.34
2023-01-09T06:26:46.548Z,96291.88
2023-01-09T06:28:56.041Z,96300.81
2023-01-09T06:31:04.259Z,96288.22
2023-01-09T06:33:12.457Z,96298.19
2023-01-09T06:35:22.519Z,96302.69
2023-01-09T06:37:30.502Z,96293.69
2023-01-09T06:39:38.694Z,96297.81
2023-01-09T06:41:49.361Z,96298.09
2023-01-09T06:43:57.267Z,96296.78
2023-01-09T06:46:05.823Z,96300.97
2023-01-09T06:48:14.079Z,96306.16
2023-01-09T06:50:22.294Z,96315.53
2023-01-09T06:52:30.094Z,96314.63
2023-01-09T06:54:38.476Z,96320.63
2023-01-09T06:56:49.395Z,96314.72
2023-01-09T06:58:57.249Z,96319.88
2023-01-09T07:01:05.457Z,96309.63
2023-01-09T07:03:19.698Z,96312.81
2023-01-09T07:05:27.798Z,96306.63
2023-01-09T07:07:35.655Z,96312.94
2023-01-09T07:09:43.874Z,96316.78
2023-01-09T07:11:54.312Z,96324.84
2023-01-09T07:14:02.426Z,96321.47
2023-01-09T07:16:11.542Z,96325.22
2023-01-09T07:18:19.325Z,96341.22
2023-01-09T07:20:27.607Z,96337.91
2023-01-09T07:22:35.733Z,96334.41
2023-01-09T07:24:44.533Z,96358.56
2023-01-09T07:26:55.040Z,96356.31
2023-01-09T07:29:03.162Z,96361.47
2023-01-09T07:31:11.874Z,96361.75
2023-01-09T07:33:19.844Z,96369.00
2023-01-09T07:35:28.048Z,96370.69
2023-01-09T07:37:36.119Z,96383.00
2023-01-09T07:39:44.303Z,96375.94
2023-01-09T07:41:54.783Z,96387.41
2023-01-09T07:44:02.675Z,96381.19
2023-01-09T07:46:10.650Z,96398.38
2023-01-09T07:48:18.607Z,96402.06
2023-01-09T07:50:26.480Z,96409.59
2023-01-09T07:52:34.244Z,96413.06
2023-01-09T07:54:42.211Z,96403.00
2023-01-09T07:56:50.168Z,96415.88
2023-01-09T07:59:00.733Z,96412.84
2023-01-09T08:01:09.091Z,96420.28
2023-01-09T08:03:16.938Z,96413.72
2023-01-09T08:05:25.271Z,96426.38
2023-01-09T08:07:33.286Z,96426.94
2023-01-09T08:09:41.192Z,96419.81
2023-01-09T08:11:49.088Z,96419.72
2023-01-09T08:13:56.979Z,96421.91
2023-01-09T08:16:08.815Z,96427.63
2023-01-09T08:18:19.400Z,96414.28
2023-01-09T08:20:27.657Z,96418.78
2023-01-09T08:22:35.878Z,96410.47
2023-01-09T08:24:43.765Z,96416.88
2023-01-09T08:26:51.700Z,96410.69
2023-01-09T08:28:59.553Z,96411.44
2023-01-09T08:31:09.992Z,96413.63
2023-01-09T08:33:18.263Z,96418.22
2023-01-09T08:35:26.452Z,96414.28
2023-01-09T08:37:34.211Z,96418.22
2023-01-09T08:39:42.116Z,96417.31
2023-01-09T08:42:02.379Z,96408.91
2023-01-09T08:44:22.950Z,96402.25
2023-01-09T08:47:00.803Z,96412.03
2023-01-09T08:49:08.674Z,96412.88
2023-01-09T08:51:17.285Z,96414.84
2023-01-09T08:53:25.374Z,96420.28
2023-01-09T08:55:33.298Z,96415.75
2023-01-09T08:57:41.045Z,96419.34
2023-01-09T08:59:49.026Z,96417.25
2023-01-09T09:01:59.593Z,96423.47
2023-01-09T09:04:07.843Z,96422.53
2023-01-09T09:06:15.757Z,96418.53
2023-01-09T09:08:23.658Z,96415.00
2023-01-09T09:10:32.413Z,96423.78
2023-01-09T09:12:40.338Z,96415.59
2023-01-09T09:15:00.595Z,96414.88
2023-01-09T09:17:13.765Z,96413.50
2023-01-09T09:19:21.859Z,96420.94
2023-01-09T09:21:29.818Z,96418.69
2023-01-09T09:23:37.727Z,96427.69
2023-01-09T09:25:45.536Z,96425.50
2023-01-09T09:27:56.038Z,96435.56
2023-01-09T09:30:03.840Z,96446.00
2023-01-09T09:32:14.287Z,96459.13
2023-01-09T09:34:22.724Z,96474.41
2023-01-09T09:36:32.507Z,96483.69
2023-01-09T09:38:40.300Z,96499.66
2023-01-09T09:41:38.371Z,96505.41
2023-01-09T09:44:17.338Z,96516.41
2023-01-09T09:46:36.207Z,96515.22
2023-01-09T09:48:53.279Z,96536.47
2023-01-09T09:51:26.220Z,96522.91
2023-01-09T09:53:39.521Z,96486.06
2023-01-09T09:55:49.584Z,96481.19
2023-01-09T09:57:59.707Z,96479.03
2023-01-09T10:00:10.039Z,96469.69
2023-01-09T10:02:33.508Z,96466.66
2023-01-09T10:04:51.841Z,96453.25
2023-01-09T10:07:06.170Z,96448.84
2023-01-09T10:09:30.608Z,96446.38
2023-01-09T10:11:55.630Z,96443.50
2023-01-09T10:14:22.787Z,96429.97
2023-01-09T10:16:47.014Z,96427.19
2023-01-09T10:19:08.427Z,96422.03
2023-01-09T10:21:33.646Z,96412.09
2023-01-09T10:24:01.223Z,96418.00
2023-01-09T10:26:14.929Z,96413.41
2023-01-09T10:28:37.679Z,96417.50
2023-01-09T10:30:50.026Z,96418.66
2023-01-09T10:33:09.482Z,96414.91
2023-01-09T10:35:48.304Z,96409.47
2023-01-09T10:38:03.249Z,96412.28
2023-01-09T10:40:20.979Z,96418.25
2023-01-09T10:42:35.356Z,96416.91
2023-01-09T10:44:50.910Z,96419.53
2023-01-09T10:47:00.829Z,96421.09
2023-01-09T10:49:15.610Z,96414.91
2023-01-09T10:51:27.127Z,96420.28
2023-01-09T10:53:42.413Z,96422.22
2023-01-09T10:55:51.662Z,96414.41
2023-01-09T10:58:04.379Z,96411.75
2023-01-09T11:00:23.074Z,96413.09
2023-01-09T11:02:35.120Z,96409.59
2023-01-09T11:04:43.629Z,96409.25
2023-01-09T11:06:55.647Z,96408.78
2023-01-09T11:09:08.267Z,96405.63
2023-01-09T11:11:33.511Z,96399.50
2023-01-09T11:13:47.304Z,96399.78
2023-01-09T11:16:09.387Z,96401.56
2023-01-09T11:18:24.641Z,96405.47
2023-01-09T11:20:33.578Z,96400.53
2023-01-09T11:22:47.579Z,96400.50
2023-01-09T11:25:03.787Z,96400.53
2023-01-09T11:27:27.846Z,96408.09
2023-01-09T11:29:35.858Z,96400.28
2023-01-09T11:31:44.798Z,96401.38
2023-01-09T11:33:52.863Z,96397.06
2023-01-09T11:36:04.808Z,96399.28
2023-01-09T11:38:19.345Z,96396.06
2023-01-09T11:40:30.901Z,96393.91
2023-01-09T11:42:51.459Z,96387.19
2023-01-09T11:45:01.968Z,96392.03
2023-01-09T11:47:27.880Z,96389.72
2023-01-09T11:49:35.930Z,96380.47
2023-01-09T11:51:45.094Z,96388.66
2023-01-09T11:54:03.584Z,96384.56
2023-01-09T11:56:17.441Z,96382.88
2023-01-09T11:58:26.476Z,96396.13
2023-01-09T12:00:47.205Z,96394.53
2023-01-09T12:03:08.049Z,96378.66
2023-01-09T12:05:25.455Z,96389.84
2023-01-09T12:07:50.012Z,96383.84
2023-01-09T12:10:06.023Z,96379.63
2023-01-09T12:12:29.379Z,96383.94
2023-01-09T12:14:51.625Z,96385.50
2023-01-09T12:17:15.633Z,96389.38
2023-01-09T12:19:51.595Z,96385.19
2023-01-09T12:22:11.657Z,96381.19
2023-01-09T12:24:53.347Z,96386.25
2023-01-09T12:27:17.366Z,96383.25
2023-01-09T12:29:54.189Z,96384.91
2023-01-09T12:32:22.489Z,96382.41
2023-01-09T12:34:45.687Z,96390.72
2023-01-09T12:37:00.481Z,96401.53
2023-01-09T12:39:19.815Z,96391.91
2023-01-09T12:41:46.771Z,96386.59
2023-01-09T12:44:08.859Z,96390.59
2023-01-09T12:46:23.262Z,96390.94
2023-01-09T12:48:59.353Z,96392.25
2023-01-09T12:51:38.894Z,96396.94
2023-01-09T12:53:52.277Z,96391.28
2023-01-09T12:56:06.897Z,96389.75
2023-01-09T12:58:23.099Z,96392.75
2023-01-09T13:00:35.733Z,96394.78
2023-01-09T13:03:00.398Z,96382.63
2023-01-09T13:05:19.319Z,96397.78
2023-01-09T13:07:31.785Z,96396.94
2023-01-09T13:09:47.881Z,96382.63
2023-01-09T13:12:07.638Z,96384.94
2023-01-09T13:14:23.080Z,96376.13
2023-01-09T13:16:36.567Z,96373.72
2023-01-09T13:18:52.786Z,96386.47
2023-01-09T13:21:01.521Z,96389.09
2023-01-09T13:23:10.376Z,96397.19
2023-01-09T13:25:38.311Z,96406.84
2023-01-09T13:27:54.656Z,96411.84
2023-01-09T13:30:11.375Z,96414.88
2023-01-09T13:32:38.331Z,96417.63
2023-01-09T13:34:57.464Z,96423.38
2023-01-09T13:37:06.095Z,96408.78
2023-01-09T13:39:26.158Z,96420.25
2023-01-09T13:41:47.614Z,96410.47
2023-01-09T13:43:58.217Z,96417.22
2023-01-09T13:46:06.651Z,96419.75
2023-01-09T13:48:29.698Z,96406.06
2023-01-09T13:50:41.760Z,96408.72
2023-01-09T13:52:49.788Z,96419.22
2023-01-09T13:55:25.174Z,96426.44
2023-01-09T13:57:36.077Z,96411.09
2023-01-09T13:59:45.033Z,96415.94
2023-01-09T14:01:53.116Z,96423.66
2023-01-09T14:04:30.694Z,96422.44
2023-01-09T14:06:41.868Z,96425.81
2023-01-09T14:08:52.319Z,96431.13
2023-01-09T14:11:02.862Z,96436.72
2023-01-09T14:13:17.987Z,96451.59
2023-01-09T14:15:30.617Z,96448.25
2023-01-09T14:17:40.715Z,96454.38
2023-01-09T14:19:49.264Z,96449.53
2023-01-09T14:22:01.445Z,96458.09
2023-01-09T14:24:10.126Z,96464.50
2023-01-09T14:26:22.135Z,96469.06
2023-01-09T14:28:31.497Z,96480.16
2023-01-09T14:30:41.864Z,96479.94
2023-01-09T14:32:59.942Z,96487.84
2023-01-09T14:35:17.114Z,96488.06
2023-01-09T14:37:30.227Z,96498.59
2023-01-09T14:39:39.070Z,96497.06
2023-01-09T14:42:05.864Z,96497.94
2023-01-09T14:44:28.810Z,96499.09
2023-01-09T14:46:42.566Z,96504.84
2023-01-09T14:49:06.741Z,96508.41
2023-01-09T14:51:19.177Z,96513.03
2023-01-09T14:53:33.615Z,96517.53
2023-01-09T14:55:51.772Z,96526.94
2023-01-09T14:58:13.480Z,96530.19
2023-01-09T15:00:22.410Z,96539.00
2023-01-09T15:02:33.861Z,96544.97
2023-01-09T15:04:46.102Z,96555.13
2023-01-09T15:06:54.721Z,96557.88
2023-01-09T15:09:07.456Z,96566.81
2023-01-09T15:11:16.667Z,96574.38
2023-01-09T15:13:34.400Z,96575.03
2023-01-09T15:15:47.895Z,96576.88
2023-01-09T15:17:59.790Z,96578.75
2023-01-09T15:20:09.682Z,96583.13
2023-01-09T15:22:26.247Z,96583.75
2023-01-09T15:24:37.676Z,96597.28
2023-01-09T15:26:54.239Z,96584.25
2023-01-09T15:29:05.557Z,96592.88
2023-01-09T15:31:18.241Z,96598.88
2023-01-09T15:33:26.552Z,96591.44
2023-01-09T15:35:36.387Z,96601.69
2023-01-09T15:37:47.463Z,96601.34
2023-01-09T15:40:00.315Z,96600.63
2023-01-09T15:42:33.928Z,96593.84
2023-01-09T15:44:44.454Z,96588.56
2023-01-09T15:46:53.942Z,96596.31
2023-01-09T15:49:03.047Z,96595.69
2023-01-09T15:51:14.579Z,96597.69
2023-01-09T15:53:25.695Z,96592.66
2023-01-09T15:55:38.676Z,96593.13
2023-01-09T15:57:55.101Z,96590.13
2023-01-09T16:00:45.575Z,96590.59
2023-01-09T16:03:06.118Z,96599.78
2023-01-09T16:05:16.966Z,96606.47
2023-01-09T16:07:24.944Z,96617.16
2023-01-09T16:09:37.951Z,96625.38
2023-01-09T16:11:52.289Z,96630.34
2023-01-09T16:14:04.887Z,96644.81
2023-01-09T16:16:14.010Z,96645.03
2023-01-09T16:18:31.917Z,96648.59
2023-01-09T16:20:40.709Z,96663.25
2023-01-09T16:22:56.227Z,96666.44
2023-01-09T16:25:23.995Z,96660.88
2023-01-09T16:27:36.153Z,96672.84
2023-01-09T16:29:50.081Z,96671.94
2023-01-09T16:32:05.761Z,96665.88
2023-01-09T16:34:15.942Z,96673.63
2023-01-09T16:36:24.148Z,96671.34
2023-01-09T16:38:32.419Z,96669.56
2023-01-09T16:40:40.540Z,96672.88
2023-01-09T16:43:03.746Z,96684.25
2023-01-09T16:45:12.968Z,96687.91
2023-01-09T16:47:21.146Z,96693.38
2023-01-09T16:49:29.875Z,96704.41
2023-01-09T16:51:37.834Z,96700.25
2023-01-09T16:53:46.532Z,96708.56
2023-01-09T16:55:56.639Z,96708.06
2023-01-09T16:58:18.621Z,96705.13
2023-01-09T17:00:26.943Z,96709.22
2023-01-09T17:02:36.519Z,96709.09
2023-01-09T17:04:44.494Z,96717.19
2023-01-09T17:06:53.787Z,96713.44
2023-01-09T17:09:01.914Z,96713.53
2023-01-09T17:11:14.371Z,96729.63
2023-01-09T17:13:25.733Z,96731.72
2023-01-09T17:15:33.921Z,96741.59
2023-01-09T17:17:41.897Z,96737.28
2023-01-09T17:19:49.862Z,96737.94
2023-01-09T17:21:57.786Z,96737.34
2023-01-09T17:24:18.357Z,96740.56
2023-01-09T17:26:40.808Z,96739.59
2023-01-09T17:28:53.657Z,96736.22
2023-01-09T17:31:01.846Z,96734.69
2023-01-09T17:33:17.400Z,96733.09
2023-01-09T17:35:25.751Z,96727.91
2023-01-09T17:37:33.995Z,96739.38
2023-01-09T17:39:42.039Z,96741.34
2023-01-09T17:41:50.281Z,96741.34
2023-01-09T17:44:05.759Z,96742.66
2023-01-09T17:46:18.704Z,96746.50
2023-01-09T17:48:26.609Z,96742.75
2023-01-09T17:50:36.457Z,96740.53
2023-01-09T17:52:44.459Z,96736.97
2023-01-09T17:54:52.241Z,96743.84
2023-01-09T17:57:00.164Z,96741.69
2023-01-09T17:59:14.222Z,96750.19
2023-01-09T18:01:22.924Z,96754.19
2023-01-09T18:03:33.604Z,96754.41
2023-01-09T18:05:42.587Z,96754.03
2023-01-09T18:07:51.009Z,96755.66
2023-01-09T18:09:59.081Z,96759.72
2023-01-09T18:12:07.312Z,96763.81
2023-01-09T18:14:18.366Z,96770.38
2023-01-09T18:16:28.018Z,96780.16
2023-01-09T18:18:36.206Z,96786.69
2023-01-09T18:20:45.266Z,96789.22
2023-01-09T18:22:54.170Z,96798.13
2023-01-09T18:25:02.236Z,96802.88
2023-01-09T18:27:10.347Z,96807.78
2023-01-09T18:29:21.491Z,96819.72
2023-01-09T18:31:31.385Z,96826.34
2023-01-09T18:33:39.321Z,96836.78
2023-01-09T18:35:48.017Z,96835.94
2023-01-09T18:37:56.184Z,96821.16
2023-01-09T18:40:04.230Z,96836.03
2023-01-09T18:42:12.459Z,96834.34
2023-01-09T18:44:23.882Z,96839.34
2023-01-09T18:46:42.266Z,96841.47
2023-01-09T18:48:54.979Z,96839.94
2023-01-09T18:51:08.046Z,96841.56
2023-01-09T18:53:15.997Z,96843.88
2023-01-09T18:55:25.039Z,96852.81
2023-01-09T18:57:33.159Z,96854.03
2023-01-09T18:59:43.575Z,96860.88
2023-01-09T19:01:51.533Z,96865.78
2023-01-09T19:04:02.493Z,96870.72
2023-01-09T19:06:11.240Z,96867.06
2023-01-09T19:08:21.430Z,96868.78
2023-01-09T19:10:31.199Z,96879.38
2023-01-09T19:12:39.202Z,96884.41
2023-01-09T19:14:49.797Z,96893.06
2023-01-09T19:17:01.440Z,96886.38
2023-01-09T19:19:09.611Z,96888.06
2023-01-09T19:21:22.927Z,96896.16
2023-01-09T19:23:32.149Z,96905.81
2023-01-09T19:25:41.489Z,96905.31
2023-01-09T19:27:49.561Z,96914.81
2023-01-09T19:30:01.795Z,96912.94
2023-01-09T19:32:09.844Z,96918.13
2023-01-09T19:34:19.038Z,96911.34
2023-01-09T19:36:27.040Z,96921.53
2023-01-09T19:38:34.912Z,96920.84
2023-01-09T19:40:43.136Z,96931.81
2023-01-09T19:42:51.362Z,96932.50
2023-01-09T19:45:02.229Z,96928.59
2023-01-09T19:47:10.942Z,96930.63
2023-01-09T19:49:19.116Z,96938.69
2023-01-09T19:51:28.358Z,96948.72
2023-01-09T19:53:41.830Z,96946.84
2023-01-09T19:55:49.671Z,96948.47
2023-01-09T19:57:58.143Z,96952.69
2023-01-09T20:00:09.738Z,96954.56
2023-01-09T20:04:30.099Z,96951.38
2023-01-09T20:06:40.789Z,96951.16
2023-01-09T20:08:53.731Z,96949.38
2023-01-09T20:11:06.664Z,96954.63
2023-01-09T20:13:14.697Z,96943.38
2023-01-09T20:15:25.343Z,96956.25
2023-01-09T20:17:35.398Z,96952.34
2023-01-09T20:19:45.577Z,96958.06
2023-01-09T20:21:54.401Z,96958.13
2023-01-09T20:24:05.001Z,96964.31
2023-01-09T20:26:12.825Z,96964.81
2023-01-09T20:28:22.261Z,96975.50
2023-01-09T20:30:34.623Z,96973.16
2023-01-09T20:32:45.829Z,96986.75
2023-01-09T20:34:53.561Z,96990.00
2023-01-09T20:37:02.643Z,96992.84
2023-01-09T20:39:12.528Z,96992.38
2023-01-09T20:41:26.236Z,96998.50
2023-01-09T20:43:34.022Z,96997.19
2023-01-09T20:45:44.511Z,97005.72
2023-01-09T20:47:52.343Z,96999.06
2023-01-09T20:50:00.303Z,97007.44
2023-01-09T20:52:08.158Z,97006.84
2023-01-09T20:54:18.254Z,97002.63
2023-01-09T20:56:27.572Z,97009.25
2023-01-09T20:58:36.185Z,97005.22
2023-01-09T21:00:46.930Z,97014.53
2023-01-09T21:02:55.155Z,97016.09
2023-01-09T21:05:03.099Z,97013.16
2023-01-09T21:07:11.183Z,97004.50
2023-01-09T21:09:19.003Z,97007.28
2023-01-09T21:11:28.277Z,97008.38
2023-01-09T21:13:38.415Z,97009.63
2023-01-09T21:15:49.063Z,97017.56
2023-01-09T21:17:56.941Z,97015.47
2023-01-09T21:20:05.890Z,97021.53
2023-01-09T21:22:14.053Z,97024.38
2023-01-09T21:24:21.897Z,97023.97
2023-01-09T21:26:34.710Z,97032.09
2023-01-09T21:28:49.111Z,97042.34
2023-01-09T21:30:59.538Z,97042.63
2023-01-09T21:33:09.805Z,97048.75
2023-01-09T21:35:17.786Z,97051.31
2023-01-09T21:37:25.611Z,97051.22
2023-01-09T21:39:33.389Z,97049.53
2023-01-09T21:41:53.573Z,97047.00
2023-01-09T21:44:13.794Z,97052.41
2023-01-09T21:46:51.589Z,97056.34
2023-01-09T21:48:59.464Z,97065.94
2023-01-09T21:51:07.749Z,97065.00
2023-01-09T21:53:16.648Z,97072.50
2023-01-09T21:55:27.374Z,97080.25
2023-01-09T21:57:35.589Z,97087.91
2023-01-09T21:59:48.365Z,97089.78
2023-01-09T22:01:59.328Z,97097.03
2023-01-09T22:04:07.757Z,97107.81
2023-01-09T22:06:15.821Z,97107.25
2023-01-09T22:08:23.882Z,97107.97
2023-01-09T22:10:33.494Z,97110.91
2023-01-09T22:13:01.904Z,97118.88
2023-01-09T22:15:10.461Z,97111.19
2023-01-09T22:17:21.123Z,97113.13
2023-01-09T22:19:29.389Z,97112.53
2023-01-09T22:21:37.532Z,97119.56
2023-01-09T22:23:45.500Z,97120.13
2023-01-09T22:25:53.612Z,97121.91
2023-01-09T22:28:01.641Z,97123.84
2023-01-09T22:30:11.181Z,97128.47
2023-01-09T22:32:22.801Z,97136.47
2023-01-09T22:34:31.098Z,97136.22
2023-01-09T22:36:39.009Z,97147.28
2023-01-09T22:38:47.219Z,97157.91
2023-01-09T22:40:55.268Z,97154.97
2023-01-09T22:43:03.497Z,97167.13
2023-01-09T22:45:12.641Z,97168.84
2023-01-09T22:47:23.229Z,97169.69
2023-01-09T22:49:41.101Z,97178.00
2023-01-09T22:51:59.819Z,97173.19
2023-01-09T22:54:07.741Z,97174.34
2023-01-09T22:56:17.809Z,97171.84
2023-01-09T22:58:26.420Z,97175.34
2023-01-09T23:00:36.182Z,97183.88
2023-01-09T23:02:48.015Z,97179.41
2023-01-09T23:04:58.468Z,97180.53
2023-01-09T23:07:06.746Z,97183.47
2023-01-09T23:09:14.997Z,97182.75
2023-01-09T23:11:38.117Z,97183.19
2023-01-09T23:13:46.067Z,97194.25
2023-01-09T23:15:54.185Z,97192.00
2023-01-09T23:18:05.226Z,97194.31
2023-01-09T23:20:15.150Z,97196.03
2023-01-09T23:22:26.092Z,97205.00
2023-01-09T23:24:35.190Z,97208.97
2023-01-09T23:26:43.897Z,97214.25
2023-01-09T23:28:51.863Z,97226.09
2023-01-09T23:30:59.848Z,97233.84
2023-01-09T23:33:10.479Z,97233.22
2023-01-09T23:35:19.149Z,97235.06
2023-01-09T23:37:27.556Z,97239.25
2023-01-09T23:39:35.429Z,97223.63
2023-01-09T23:41:56.186Z,97225.31
2023-01-09T23:44:04.575Z,97227.47
2023-01-09T23:46:14.278Z,97228.94
2023-01-09T23:48:25.515Z,97227.41
2023-01-09T23:50:33.529Z,97235.38
2023-01-09T23:52:41.586Z,97242.34
2023-01-09T23:54:49.519Z,97235.22
2023-01-09T23:56:58.205Z,97243.41
2023-01-09T23:59:08.197Z,97241.16
